createdAt,value
2023-02-18T00:01:51.631Z,17.38
2023-02-18T00:04:20.578Z,17.63
2023-02-18T00:06:49.716Z,15.00
2023-02-18T00:09:21.487Z,16.30
2023-02-18T00:11:48.258Z,15.57
2023-02-18T00:14:16.231Z,18.30
2023-02-18T00:16:45.926Z,16.15
2023-02-18T00:19:16.027Z,15.48
2023-02-18T00:21:47.684Z,15.02
2023-02-18T00:24:17.927Z,13.68
2023-02-18T00:26:45.503Z,13.95
2023-02-18T00:29:12.303Z,14.80
2023-02-18T00:31:39.750Z,15.80
2023-02-18T00:34:12.338Z,15.30
2023-02-18T00:36:39.466Z,15.13
2023-02-18T00:39:10.673Z,14.85
2023-02-18T00:41:37.535Z,14.05
2023-02-18T00:44:05.223Z,13.73
2023-02-18T00:46:32.263Z,14.70
2023-02-18T00:49:01.367Z,14.60
2023-02-18T00:51:28.643Z,14.32
2023-02-18T00:53:57.560Z,14.55
2023-02-18T00:56:24.295Z,15.20
2023-02-18T00:58:53.274Z,14.35
2023-02-18T01:01:20.480Z,13.45
2023-02-18T01:03:47.568Z,12.63
2023-02-18T01:06:14.883Z,11.73
2023-02-18T01:08:44.089Z,12.70
2023-02-18T01:13:56.148Z,10.52
2023-02-18T01:16:23.254Z,11.20
2023-02-18T01:18:49.975Z,10.48
2023-02-18T01:21:17.204Z,9.35
2023-02-18T01:23:43.998Z,9.68
2023-02-18T01:26:12.918Z,8.98
2023-02-18T01:28:41.482Z,7.78
2023-02-18T01:31:12.700Z,10.77
2023-02-18T01:33:42.667Z,9.23
2023-02-18T01:36:12.332Z,6.90
2023-02-18T01:38:41.438Z,8.63
2023-02-18T01:41:08.782Z,9.27
2023-02-18T01:43:36.145Z,7.53
2023-02-18T01:46:21.849Z,9.80
2023-02-18T01:48:54.942Z,10.00
2023-02-18T01:51:28.933Z,12.40
2023-02-18T01:54:05.342Z,10.73
2023-02-18T01:56:34.820Z,8.23
2023-02-18T01:59:07.645Z,9.10
2023-02-18T02:01:37.341Z,7.78
2023-02-18T02:04:06.589Z,9.13
2023-02-18T02:06:33.334Z,7.75
2023-02-18T02:09:04.147Z,7.57
2023-02-18T02:11:54.266Z,7.38
2023-02-18T02:14:35.995Z,9.25
2023-02-18T02:17:30.158Z,8.52
2023-02-18T02:20:31.270Z,8.43
2023-02-18T02:23:19.104Z,9.00
2023-02-18T02:25:47.926Z,9.27
2023-02-18T02:28:52.428Z,7.30
2023-02-18T02:31:45.670Z,9.20
2023-02-18T02:34:37.202Z,10.25
2023-02-18T02:37:15.523Z,8.15
2023-02-18T02:40:00.626Z,8.73
2023-02-18T02:42:40.124Z,10.40
2023-02-18T02:45:12.810Z,8.85
2023-02-18T02:47:53.433Z,12.40
2023-02-18T02:50:39.912Z,11.23
2023-02-18T02:53:20.219Z,12.32
2023-02-18T02:55:49.488Z,12.85
2023-02-18T02:58:19.892Z,12.27
2023-02-18T03:01:13.984Z,14.63
2023-02-18T03:04:18.073Z,15.95
2023-02-18T03:07:01.975Z,13.65
2023-02-18T03:10:06.004Z,15.25
2023-02-18T03:12:47.091Z,13.38
2023-02-18T03:15:21.331Z,13.27
2023-02-18T03:18:16.091Z,12.27
2023-02-18T03:21:02.967Z,12.77
2023-02-18T03:23:37.701Z,10.88
2023-02-18T03:26:11.380Z,9.27
2023-02-18T03:28:38.777Z,9.02
2023-02-18T03:31:17.147Z,9.57
2023-02-18T03:33:52.187Z,8.70
2023-02-18T03:36:23.509Z,8.27
2023-02-18T03:38:58.898Z,8.38
2023-02-18T03:41:25.725Z,8.05
2023-02-18T03:44:03.707Z,8.88
2023-02-18T03:46:31.705Z,6.10
2023-02-18T03:48:58.402Z,7.00
2023-02-18T03:51:25.094Z,6.68
2023-02-18T03:53:54.420Z,5.25
2023-02-18T03:56:21.168Z,4.75
2023-02-18T03:58:50.296Z,6.18
2023-02-18T04:01:19.736Z,4.60
2023-02-18T04:03:46.590Z,4.50
2023-02-18T04:06:13.258Z,3.67
2023-02-18T04:08:44.547Z,3.97
2023-02-18T04:11:15.953Z,2.95
2023-02-18T04:13:42.734Z,3.72
2023-02-18T04:16:09.710Z,3.70
2023-02-18T04:18:38.696Z,3.42
2023-02-18T04:21:07.887Z,5.68
2023-02-18T04:23:36.796Z,3.58
2023-02-18T04:26:03.775Z,3.88
2023-02-18T04:28:30.405Z,5.18
2023-02-18T04:30:57.072Z,6.22
2023-02-18T04:33:25.946Z,5.03
2023-02-18T04:35:52.589Z,3.60
2023-02-18T04:38:24.174Z,5.05
2023-02-18T04:40:50.836Z,6.53
2023-02-18T04:43:19.640Z,4.65
2023-02-18T04:45:46.408Z,6.10
2023-02-18T04:48:13.151Z,5.28
2023-02-18T04:50:39.868Z,5.13
2023-02-18T04:53:09.073Z,5.88
2023-02-18T04:55:40.446Z,5.75
2023-02-18T04:58:07.266Z,6.57
2023-02-18T05:00:33.908Z,5.78
2023-02-18T05:03:00.538Z,6.82
2023-02-18T05:05:27.203Z,7.88
2023-02-18T05:07:56.302Z,8.68
2023-02-18T05:10:25.263Z,8.27
2023-02-18T05:12:54.040Z,9.75
2023-02-18T05:15:23.147Z,6.57
2023-02-18T05:17:49.798Z,7.18
2023-02-18T05:20:16.607Z,6.80
2023-02-18T05:22:43.284Z,7.60
2023-02-18T05:25:09.993Z,7.85
2023-02-18T05:27:36.694Z,12.02
2023-02-18T05:30:04.127Z,8.90
2023-02-18T05:32:33.345Z,11.10
2023-02-18T05:34:59.986Z,9.93
2023-02-18T05:37:26.642Z,10.20
2023-02-18T05:39:53.336Z,11.30
2023-02-18T05:42:24.902Z,8.98
2023-02-18T05:44:56.277Z,7.13
2023-02-18T05:47:25.168Z,7.35
2023-02-18T05:49:51.859Z,6.10
2023-02-18T05:52:18.627Z,7.95
2023-02-18T05:54:45.291Z,5.43
2023-02-18T05:57:15.000Z,4.60
2023-02-18T05:59:41.887Z,6.38
2023-02-18T06:02:13.272Z,4.78
2023-02-18T06:04:40.538Z,5.40
2023-02-18T06:07:07.492Z,3.80
2023-02-18T06:09:34.228Z,6.47
2023-02-18T06:12:03.531Z,7.82
2023-02-18T06:14:30.189Z,7.70
2023-02-18T06:16:59.497Z,6.65
2023-02-18T06:19:26.226Z,7.30
2023-02-18T06:21:52.936Z,4.07
2023-02-18T06:24:21.765Z,4.70
2023-02-18T06:26:48.423Z,3.47
2023-02-18T06:29:15.070Z,2.95
2023-02-18T06:31:41.773Z,3.50
2023-02-18T06:34:08.537Z,3.67
2023-02-18T06:36:40.319Z,2.40
2023-02-18T06:39:09.667Z,3.20
2023-02-18T06:41:41.009Z,3.63
2023-02-18T06:44:11.245Z,4.38
2023-02-18T06:46:38.013Z,4.07
2023-02-18T06:49:04.663Z,2.30
2023-02-18T06:51:36.249Z,2.08
2023-02-18T06:54:02.949Z,2.55
2023-02-18T06:56:32.243Z,2.50
2023-02-18T06:58:58.954Z,2.10
2023-02-18T07:01:28.099Z,2.03
2023-02-18T07:03:54.889Z,1.88
2023-02-18T07:06:23.725Z,1.80
2023-02-18T07:08:52.837Z,2.85
2023-02-18T07:11:19.558Z,3.03
2023-02-18T07:13:46.206Z,2.05
2023-02-18T07:16:12.945Z,2.10
2023-02-18T07:18:39.646Z,2.10
2023-02-18T07:21:06.294Z,1.50
2023-02-18T07:23:33.007Z,1.67
2023-02-18T07:26:08.218Z,2.88
2023-02-18T07:28:35.198Z,2.55
2023-02-18T07:31:04.706Z,1.60
2023-02-18T07:33:31.692Z,1.70
2023-02-18T07:36:04.403Z,1.80
2023-02-18T07:38:33.773Z,1.50
2023-02-18T07:41:05.283Z,1.98
2023-02-18T07:43:32.037Z,1.58
2023-02-18T07:45:58.886Z,1.80
2023-02-18T07:48:27.714Z,2.05
2023-02-18T07:50:54.428Z,1.92
2023-02-18T07:53:21.102Z,2.92
2023-02-18T07:55:50.315Z,2.60
2023-02-18T07:58:23.230Z,2.78
2023-02-18T08:00:50.509Z,2.03
2023-02-18T08:03:19.135Z,3.30
2023-02-18T08:05:48.557Z,2.40
2023-02-18T08:08:22.994Z,3.28
2023-02-18T08:10:51.074Z,3.05
2023-02-18T08:13:20.435Z,5.95
2023-02-18T08:15:47.190Z,5.20
2023-02-18T08:18:24.162Z,6.90
2023-02-18T08:20:51.810Z,6.35
2023-02-18T08:23:25.639Z,8.75
2023-02-18T08:25:53.705Z,8.98
2023-02-18T08:28:22.194Z,6.82
2023-02-18T08:30:51.034Z,7.40
2023-02-18T08:33:20.950Z,6.15
2023-02-18T08:35:50.077Z,3.70
2023-02-18T08:38:16.913Z,7.03
2023-02-18T08:40:46.047Z,7.30
2023-02-18T08:43:16.606Z,9.88
2023-02-18T08:45:46.621Z,8.18
2023-02-18T08:48:20.337Z,10.38
2023-02-18T08:50:51.961Z,8.45
2023-02-18T08:53:21.195Z,5.57
2023-02-18T08:55:50.278Z,5.05
2023-02-18T08:58:17.365Z,7.35
2023-02-18T09:00:49.564Z,9.88
2023-02-18T09:03:18.883Z,9.73
2023-02-18T09:05:45.681Z,13.32
2023-02-18T09:08:12.316Z,7.43
2023-02-18T09:10:39.691Z,8.52
2023-02-18T09:13:06.388Z,7.60
2023-02-18T09:15:35.587Z,8.55
2023-02-18T09:18:02.382Z,9.57
2023-02-18T09:20:29.130Z,8.70
2023-02-18T09:22:58.195Z,10.10
2023-02-18T09:25:24.913Z,7.55
2023-02-18T09:27:51.651Z,8.57
2023-02-18T09:30:18.402Z,7.22
2023-02-18T09:32:47.496Z,11.75
2023-02-18T09:35:18.891Z,6.47
2023-02-18T09:37:47.830Z,11.15
2023-02-18T09:40:34.525Z,7.95
2023-02-18T09:43:03.737Z,6.13
2023-02-18T09:45:30.754Z,5.63
2023-02-18T09:47:58.027Z,8.60
2023-02-18T09:50:32.307Z,10.55
2023-02-18T09:53:03.940Z,12.98
2023-02-18T09:55:38.159Z,4.63
2023-02-18T09:58:12.168Z,12.38
2023-02-18T10:00:42.631Z,9.80
2023-02-18T10:03:20.363Z,10.43
2023-02-18T10:06:01.632Z,11.20
2023-02-18T10:08:33.426Z,11.15
2023-02-18T10:11:00.111Z,10.77
2023-02-18T10:13:30.684Z,11.57
2023-02-18T10:15:59.549Z,8.65
2023-02-18T10:21:12.778Z,9.00
2023-02-18T10:23:47.672Z,12.43
2023-02-18T10:26:19.857Z,14.70
2023-02-18T10:28:47.287Z,10.20
2023-02-18T10:31:28.581Z,8.10
2023-02-18T10:33:58.399Z,12.02
2023-02-18T10:36:37.357Z,7.03
2023-02-18T10:39:25.818Z,9.00
2023-02-18T10:41:54.687Z,7.65
2023-02-18T10:44:41.492Z,9.02
2023-02-18T10:47:20.051Z,6.57
2023-02-18T10:49:58.076Z,6.55
2023-02-18T10:52:30.862Z,6.65
2023-02-18T10:55:04.342Z,8.93
2023-02-18T10:57:36.447Z,8.27
2023-02-18T11:00:28.973Z,8.25
2023-02-18T11:03:21.261Z,7.93
2023-02-18T11:05:52.808Z,8.23
2023-02-18T11:08:36.474Z,10.65
2023-02-18T11:11:14.906Z,7.43
2023-02-18T11:13:44.253Z,7.10
2023-02-18T11:16:12.477Z,4.82
2023-02-18T11:18:44.294Z,4.25
2023-02-18T11:21:21.492Z,5.95
2023-02-18T11:23:51.304Z,5.03
2023-02-18T11:26:31.237Z,9.13
2023-02-18T11:29:11.517Z,8.63
2023-02-18T11:31:47.778Z,4.07
2023-02-18T11:34:21.903Z,7.90
2023-02-18T11:36:50.466Z,3.42
2023-02-18T11:39:26.633Z,6.43
2023-02-18T11:41:57.942Z,6.60
2023-02-18T11:44:36.445Z,5.13
2023-02-18T11:47:21.931Z,6.72
2023-02-18T11:50:09.408Z,4.10
2023-02-18T11:52:41.448Z,4.72
2023-02-18T11:55:20.728Z,5.97
2023-02-18T11:57:59.708Z,6.97
2023-02-18T12:00:47.826Z,5.38
2023-02-18T12:03:35.563Z,4.82
2023-02-18T12:06:13.423Z,5.47
2023-02-18T12:08:51.454Z,6.40
2023-02-18T12:11:46.867Z,5.00
2023-02-18T12:14:20.745Z,6.93
2023-02-18T12:16:50.647Z,5.63
2023-02-18T12:19:29.415Z,4.00
2023-02-18T12:22:04.259Z,3.72
2023-02-18T12:25:27.317Z,4.80
2023-02-18T12:28:11.571Z,3.95
2023-02-18T12:31:02.080Z,5.88
2023-02-18T12:33:37.073Z,5.47
2023-02-18T12:36:13.836Z,5.03
2023-02-18T12:38:57.940Z,5.97
2023-02-18T12:42:17.548Z,7.97
2023-02-18T12:45:19.522Z,7.95
2023-02-18T12:48:19.647Z,4.68
2023-02-18T12:50:51.991Z,7.25
2023-02-18T12:53:59.025Z,4.90
2023-02-18T12:59:49.489Z,7.30
2023-02-18T13:02:31.256Z,4.75
2023-02-18T13:05:29.010Z,4.53
2023-02-18T13:08:10.799Z,6.88
2023-02-18T13:10:46.251Z,6.78
2023-02-18T13:13:34.649Z,7.50
2023-02-18T13:16:17.303Z,7.45
2023-02-18T13:19:05.063Z,7.13
2023-02-18T13:21:36.091Z,7.18
2023-02-18T13:24:16.735Z,5.57
2023-02-18T13:26:49.000Z,5.53
2023-02-18T13:29:26.967Z,5.88
2023-02-18T13:32:07.829Z,6.22
2023-02-18T13:35:02.291Z,6.10
2023-02-18T13:37:31.994Z,6.15
2023-02-18T13:40:02.571Z,4.93
2023-02-18T13:42:32.001Z,4.72
2023-02-18T13:45:01.656Z,4.07
2023-02-18T13:47:40.630Z,6.65
2023-02-18T13:50:25.547Z,6.82
2023-02-18T13:53:03.661Z,5.30
2023-02-18T13:55:43.796Z,6.15
2023-02-18T13:58:44.567Z,4.95
2023-02-18T14:01:11.410Z,3.70
2023-02-18T14:03:44.990Z,5.43
2023-02-18T14:06:32.257Z,4.28
2023-02-18T14:09:13.872Z,3.58
2023-02-18T14:11:49.434Z,4.68
2023-02-18T14:14:37.946Z,3.95
2023-02-18T14:17:40.750Z,4.53
2023-02-18T14:20:07.552Z,3.83
2023-02-18T14:22:46.708Z,5.85
2023-02-18T14:25:38.409Z,5.03
2023-02-18T14:28:34.238Z,4.60
2023-02-18T14:31:15.606Z,4.70
2023-02-18T14:33:59.617Z,4.10
2023-02-18T14:36:37.033Z,4.95
2023-02-18T14:39:11.634Z,3.08
2023-02-18T14:41:48.348Z,5.72
2023-02-18T14:44:24.113Z,5.65
2023-02-18T14:47:15.270Z,4.97
2023-02-18T14:49:51.859Z,4.60
2023-02-18T14:52:33.113Z,4.07
2023-02-18T14:55:02.533Z,7.18
2023-02-18T14:57:47.672Z,5.57
2023-02-18T15:00:29.535Z,4.63
2023-02-18T15:02:56.258Z,4.85
2023-02-18T15:05:27.191Z,5.03
2023-02-18T15:08:01.102Z,5.03
2023-02-18T15:10:40.174Z,4.80
2023-02-18T15:13:19.106Z,6.13
2023-02-18T15:15:50.522Z,4.57
2023-02-18T15:18:40.911Z,5.47
2023-02-18T15:21:17.781Z,5.40
2023-02-18T15:23:44.495Z,4.80
2023-02-18T15:26:16.361Z,4.72
2023-02-18T15:28:59.755Z,6.22
2023-02-18T15:31:28.702Z,3.78
2023-02-18T15:33:55.870Z,4.50
2023-02-18T15:36:25.213Z,4.18
2023-02-18T15:38:51.996Z,4.65
2023-02-18T15:41:29.034Z,4.75
2023-02-18T15:44:02.599Z,4.75
2023-02-18T15:46:29.829Z,4.80
2023-02-18T15:48:59.458Z,4.18
2023-02-18T15:51:35.238Z,4.25
2023-02-18T15:54:04.422Z,3.58
2023-02-18T15:56:40.346Z,5.10
2023-02-18T15:59:25.691Z,5.07
2023-02-18T16:02:22.951Z,2.85
2023-02-18T16:04:58.946Z,4.88
2023-02-18T16:07:37.882Z,3.50
2023-02-18T16:10:36.560Z,4.60
2023-02-18T16:13:07.826Z,3.80
2023-02-18T16:15:45.288Z,4.70
2023-02-18T16:18:24.541Z,5.65
2023-02-18T16:21:01.384Z,7.25
2023-02-18T16:23:35.298Z,11.20
2023-02-18T16:26:39.636Z,5.68
2023-02-18T16:29:25.737Z,6.65
2023-02-18T16:34:29.093Z,4.35
2023-02-18T16:37:14.524Z,4.10
2023-02-18T16:39:41.328Z,4.10
2023-02-18T16:42:13.905Z,4.50
2023-02-18T16:44:41.029Z,5.65
2023-02-18T16:49:58.765Z,6.13
2023-02-18T16:52:25.529Z,4.88
2023-02-18T16:54:54.414Z,5.35
2023-02-18T16:57:21.451Z,5.10
2023-02-18T16:59:48.628Z,7.13
2023-02-18T17:02:24.769Z,4.95
2023-02-18T17:04:57.370Z,7.43
2023-02-18T17:07:39.654Z,6.55
2023-02-18T17:10:11.461Z,5.25
2023-02-18T17:12:42.589Z,6.97
2023-02-18T17:15:33.781Z,6.88
2023-02-18T17:18:01.725Z,8.43
2023-02-18T17:20:30.185Z,7.30
2023-02-18T17:22:57.044Z,6.90
2023-02-18T17:25:30.497Z,7.80
2023-02-18T17:27:57.611Z,6.10
2023-02-18T17:30:30.510Z,7.45
2023-02-18T17:33:03.161Z,7.22
2023-02-18T17:35:30.536Z,7.72
2023-02-18T17:37:57.344Z,8.25
2023-02-18T17:40:28.564Z,6.20
2023-02-18T17:42:55.933Z,10.48
2023-02-18T17:45:36.241Z,6.97
2023-02-18T17:48:05.979Z,7.20
2023-02-18T17:50:32.883Z,6.78
2023-02-18T17:52:59.607Z,5.10
2023-02-18T17:55:29.741Z,8.10
2023-02-18T17:57:57.178Z,6.45
2023-02-18T18:00:25.605Z,8.25
2023-02-18T18:02:52.314Z,7.45
2023-02-18T18:05:26.672Z,7.38
2023-02-18T18:07:54.124Z,9.27
2023-02-18T18:10:30.512Z,8.55
2023-02-18T18:12:58.756Z,9.45
2023-02-18T18:15:44.206Z,13.98
2023-02-18T18:18:12.103Z,10.93
2023-02-18T18:20:50.205Z,9.80
2023-02-18T18:23:21.254Z,9.52
2023-02-18T18:25:55.974Z,10.40
2023-02-18T18:28:24.143Z,9.65
2023-02-18T18:30:53.115Z,11.63
2023-02-18T18:33:31.765Z,11.30
2023-02-18T18:35:59.729Z,8.63
2023-02-18T18:38:29.846Z,8.88
2023-02-18T18:40:57.214Z,8.25
2023-02-18T18:43:32.430Z,9.65
2023-02-18T18:48:28.917Z,10.25
2023-02-18T18:51:00.524Z,10.18
2023-02-18T18:53:31.723Z,7.93
2023-02-18T18:56:00.984Z,9.93
2023-02-18T18:58:27.690Z,7.80
2023-02-18T19:01:04.388Z,8.55
2023-02-18T19:03:35.348Z,10.98
2023-02-18T19:06:04.719Z,8.32
2023-02-18T19:08:32.334Z,8.98
2023-02-18T19:11:01.134Z,10.40
2023-02-18T19:13:30.639Z,9.05
2023-02-18T19:16:06.434Z,9.88
2023-02-18T19:18:33.728Z,9.20
2023-02-18T19:21:04.664Z,8.50
2023-02-18T19:23:34.504Z,7.78
2023-02-18T19:26:05.993Z,8.75
2023-02-18T19:28:32.958Z,10.80
2023-02-18T19:30:59.629Z,8.32
2023-02-18T19:33:26.345Z,8.80
2023-02-18T19:35:55.272Z,8.50
2023-02-18T19:38:21.977Z,9.10
2023-02-18T19:40:48.718Z,8.98
2023-02-18T19:43:18.611Z,9.48
2023-02-18T19:45:47.849Z,8.43
2023-02-18T19:48:16.834Z,8.75
2023-02-18T19:50:44.129Z,7.63
2023-02-18T19:53:13.740Z,7.82
2023-02-18T19:55:40.497Z,7.18
2023-02-18T19:58:10.481Z,8.27
2023-02-18T20:00:37.245Z,9.15
2023-02-18T20:03:03.973Z,8.75
2023-02-18T20:05:33.898Z,8.40
2023-02-18T20:08:02.784Z,6.90
2023-02-18T20:10:31.591Z,7.78
2023-02-18T20:12:58.355Z,7.15
2023-02-18T20:15:25.742Z,8.15
2023-02-18T20:17:55.065Z,10.18
2023-02-18T20:20:24.741Z,8.63
2023-02-18T20:22:51.420Z,9.88
2023-02-18T20:25:20.300Z,7.35
2023-02-18T20:27:59.752Z,10.20
2023-02-18T20:30:27.785Z,11.43
2023-02-18T20:32:56.944Z,9.63
2023-02-18T20:35:24.042Z,11.90
2023-02-18T20:37:50.760Z,9.48
2023-02-18T20:40:17.686Z,9.35
2023-02-18T20:42:46.726Z,9.95
2023-02-18T20:45:13.477Z,11.70
2023-02-18T20:47:40.191Z,10.23
2023-02-18T20:50:11.777Z,10.80
2023-02-18T20:52:38.524Z,10.93
2023-02-18T20:55:07.858Z,10.32
2023-02-18T20:57:34.494Z,10.20
2023-02-18T21:00:04.157Z,9.93
2023-02-18T21:02:30.828Z,9.60
2023-02-18T21:04:57.498Z,8.73
2023-02-18T21:07:24.163Z,9.55
2023-02-18T21:09:53.076Z,8.07
2023-02-18T21:12:19.911Z,9.10
2023-02-18T21:14:46.671Z,8.40
2023-02-18T21:17:13.378Z,9.02
2023-02-18T21:19:40.662Z,7.97
2023-02-18T21:22:09.510Z,8.48
2023-02-18T21:24:36.878Z,9.25
2023-02-18T21:27:03.635Z,7.88
2023-02-18T21:29:30.444Z,7.07
2023-02-18T21:31:59.458Z,7.22
2023-02-18T21:34:30.836Z,7.30
2023-02-18T21:36:59.640Z,6.85
2023-02-18T21:39:30.952Z,7.63
2023-02-18T21:41:59.734Z,7.38
2023-02-18T21:44:40.166Z,5.60
2023-02-18T21:47:10.738Z,5.55
2023-02-18T21:49:37.421Z,6.35
2023-02-18T21:52:10.166Z,8.18
2023-02-18T21:54:41.394Z,6.47
2023-02-18T21:57:14.647Z,5.75
2023-02-18T21:59:41.623Z,8.75
2023-02-18T22:02:17.428Z,7.30
2023-02-18T22:04:44.320Z,7.25
2023-02-18T22:07:13.467Z,8.98
2023-02-18T22:09:40.334Z,8.05
2023-02-18T22:12:07.625Z,7.22
2023-02-18T22:14:34.275Z,7.10
2023-02-18T22:17:01.309Z,6.35
2023-02-18T22:19:28.027Z,6.82
2023-02-18T22:21:54.853Z,7.18
2023-02-18T22:24:22.100Z,6.70
2023-02-18T22:26:48.988Z,5.18
2023-02-18T22:29:17.977Z,5.90
2023-02-18T22:31:47.594Z,4.15
2023-02-18T22:34:14.317Z,5.05
2023-02-18T22:36:41.150Z,5.55
2023-02-18T22:39:10.682Z,4.57
2023-02-18T22:41:39.643Z,4.65
2023-02-18T22:44:11.460Z,5.90
2023-02-18T22:46:39.129Z,4.38
2023-02-18T22:49:07.604Z,5.32
2023-02-18T22:51:39.671Z,4.30
2023-02-18T22:54:10.294Z,5.15
2023-02-18T22:56:36.952Z,4.70
2023-02-18T22:59:06.549Z,5.38
2023-02-18T23:01:41.431Z,7.82
2023-02-18T23:04:10.782Z,4.60
2023-02-18T23:06:42.159Z,5.88
2023-02-18T23:09:12.495Z,6.18
2023-02-18T23:11:41.748Z,7.50
2023-02-18T23:14:18.228Z,6.03
2023-02-18T23:17:05.018Z,6.95
2023-02-18T23:19:33.393Z,6.38
2023-02-18T23:22:02.206Z,8.30
2023-02-18T23:24:31.493Z,6.18
2023-02-18T23:26:58.139Z,7.28
2023-02-18T23:29:27.225Z,7.63
2023-02-18T23:31:56.236Z,10.20
2023-02-18T23:34:28.464Z,8.18
2023-02-18T23:36:58.227Z,8.63
2023-02-18T23:39:25.809Z,8.88
2023-02-18T23:41:52.940Z,6.75
2023-02-18T23:44:24.087Z,6.28
2023-02-18T23:46:51.317Z,7.20
2023-02-18T23:49:26.066Z,7.85
2023-02-18T23:51:55.220Z,7.27
2023-02-18T23:54:27.069Z,7.70
2023-02-18T23:56:54.112Z,8.40
2023-02-18T23:59:20.787Z,8.35
